createdAt,value
2023-02-19T00:01:18.268Z,14.73
2023-02-19T00:03:50.873Z,12.40
2023-02-19T00:06:19.078Z,13.97
2023-02-19T00:08:46.258Z,14.47
2023-02-19T00:11:50.508Z,15.17
2023-02-19T00:14:20.917Z,13.53
2023-02-19T00:16:48.756Z,11.23
2023-02-19T00:19:17.981Z,16.23
2023-02-19T00:21:45.045Z,9.20
2023-02-19T00:24:14.575Z,13.33
2023-02-19T00:26:43.033Z,15.80
2023-02-19T00:29:14.268Z,13.60
2023-02-19T00:32:07.563Z,16.23
2023-02-19T00:34:34.536Z,14.73
2023-02-19T00:37:01.660Z,12.10
2023-02-19T00:39:28.710Z,16.33
2023-02-19T00:41:55.585Z,12.90
2023-02-19T00:44:22.686Z,13.53
2023-02-19T00:46:49.657Z,14.90
2023-02-19T00:49:20.113Z,14.77
2023-02-19T00:51:48.720Z,14.37
2023-02-19T00:54:16.279Z,17.57
2023-02-19T00:56:43.240Z,10.17
2023-02-19T00:59:10.361Z,15.50
2023-02-19T01:01:38.961Z,16.60
2023-02-19T01:04:06.873Z,19.50
2023-02-19T01:06:35.374Z,13.67
2023-02-19T01:09:03.886Z,15.97
2023-02-19T01:11:30.862Z,19.47
2023-02-19T01:14:00.412Z,20.17
2023-02-19T01:16:31.121Z,15.57
2023-02-19T01:18:59.216Z,16.37
2023-02-19T01:21:28.209Z,21.10
2023-02-19T01:23:55.558Z,19.57
2023-02-19T01:26:26.810Z,10.87
2023-02-19T01:28:53.823Z,17.47
2023-02-19T01:31:24.231Z,20.67
2023-02-19T01:33:54.875Z,18.77
2023-02-19T01:36:22.116Z,18.10
2023-02-19T01:38:49.909Z,19.17
2023-02-19T01:41:21.280Z,18.73
2023-02-19T01:44:08.204Z,14.17
2023-02-19T01:46:41.282Z,15.00
2023-02-19T01:49:10.096Z,15.90
2023-02-19T01:51:44.419Z,18.95
2023-02-19T01:54:14.159Z,20.07
2023-02-19T01:56:44.579Z,19.13
2023-02-19T01:59:12.680Z,20.13
2023-02-19T02:01:41.012Z,18.87
2023-02-19T02:04:11.185Z,17.73
2023-02-19T02:06:51.560Z,18.67
2023-02-19T02:09:45.119Z,16.13
2023-02-19T02:12:12.974Z,21.23
2023-02-19T02:14:44.122Z,18.90
2023-02-19T02:17:34.250Z,18.30
2023-02-19T02:20:13.438Z,20.43
2023-02-19T02:22:55.809Z,20.47
2023-02-19T02:25:55.679Z,17.87
2023-02-19T02:28:55.285Z,11.97
2023-02-19T02:31:50.042Z,16.10
2023-02-19T02:34:49.546Z,12.67
2023-02-19T02:37:16.922Z,18.53
2023-02-19T02:39:46.367Z,14.97
2023-02-19T02:42:29.098Z,17.13
2023-02-19T02:45:38.102Z,17.33
2023-02-19T02:48:47.193Z,22.17
2023-02-19T02:51:28.239Z,20.20
2023-02-19T02:54:35.102Z,13.97
2023-02-19T02:57:09.413Z,13.10
2023-02-19T02:59:43.378Z,20.23
2023-02-19T03:02:19.265Z,14.40
2023-02-19T03:05:14.793Z,20.00
2023-02-19T03:08:00.860Z,16.27
2023-02-19T03:10:58.840Z,13.97
2023-02-19T03:16:53.820Z,13.77
2023-02-19T03:19:24.853Z,13.37
2023-02-19T03:22:02.080Z,10.10
2023-02-19T03:24:55.309Z,11.18
2023-02-19T03:27:27.296Z,13.43
2023-02-19T03:29:58.762Z,14.93
2023-02-19T03:32:29.663Z,13.80
2023-02-19T03:35:02.098Z,17.93
2023-02-19T03:37:44.447Z,20.20
2023-02-19T03:40:12.131Z,18.33
2023-02-19T03:43:01.982Z,15.23
2023-02-19T03:46:02.998Z,17.70
2023-02-19T03:48:51.588Z,18.17
2023-02-19T03:51:25.106Z,17.67
2023-02-19T03:54:16.567Z,18.87
2023-02-19T03:56:59.216Z,14.93
2023-02-19T03:59:43.429Z,14.77
2023-02-19T04:02:24.611Z,19.30
2023-02-19T04:05:02.595Z,17.55
2023-02-19T04:07:35.394Z,16.00
2023-02-19T04:10:03.742Z,11.73
2023-02-19T04:12:32.421Z,17.57
2023-02-19T04:15:07.494Z,17.20
2023-02-19T04:17:37.645Z,13.33
2023-02-19T04:20:08.903Z,18.13
2023-02-19T04:22:37.594Z,12.93
2023-02-19T04:25:04.989Z,15.17
2023-02-19T04:27:33.004Z,12.67
2023-02-19T04:30:00.148Z,14.07
2023-02-19T04:32:27.200Z,15.23
2023-02-19T04:34:54.463Z,19.13
2023-02-19T04:37:21.418Z,14.90
2023-02-19T04:39:48.390Z,16.40
2023-02-19T04:42:15.297Z,16.63
2023-02-19T04:44:42.173Z,15.13
2023-02-19T04:47:09.273Z,12.50
2023-02-19T04:49:36.134Z,14.23
2023-02-19T04:52:03.139Z,16.83
2023-02-19T04:54:30.084Z,14.57
2023-02-19T04:56:57.671Z,18.37
2023-02-19T04:59:24.658Z,14.80
2023-02-19T05:01:51.791Z,13.33
2023-02-19T05:04:19.023Z,19.23
2023-02-19T05:06:46.109Z,12.53
2023-02-19T05:09:12.987Z,15.30
2023-02-19T05:11:39.968Z,14.87
2023-02-19T05:14:07.080Z,17.27
2023-02-19T05:16:34.013Z,16.73
2023-02-19T05:19:01.138Z,10.23
2023-02-19T05:21:28.190Z,11.60
2023-02-19T05:23:55.029Z,13.93
2023-02-19T05:26:23.590Z,17.73
2023-02-19T05:28:52.916Z,14.73
2023-02-19T05:31:21.477Z,12.77
2023-02-19T05:33:51.365Z,14.73
2023-02-19T05:36:20.378Z,14.80
2023-02-19T05:38:48.105Z,12.37
2023-02-19T05:41:20.314Z,17.20
2023-02-19T05:43:48.545Z,16.67
2023-02-19T05:46:18.284Z,14.70
2023-02-19T05:48:45.785Z,15.37
2023-02-19T05:51:15.421Z,14.47
2023-02-19T05:53:43.462Z,15.00
2023-02-19T05:56:31.892Z,12.60
2023-02-19T05:59:00.120Z,13.03
2023-02-19T06:01:28.849Z,13.80
2023-02-19T06:03:57.613Z,12.37
2023-02-19T06:06:26.381Z,14.30
2023-02-19T06:08:53.705Z,14.00
2023-02-19T06:11:20.796Z,15.67
2023-02-19T06:13:49.516Z,13.10
2023-02-19T06:16:22.186Z,15.10
2023-02-19T06:18:49.830Z,10.03
2023-02-19T06:21:17.503Z,11.53
2023-02-19T06:23:45.400Z,13.77
2023-02-19T06:26:13.727Z,13.57
2023-02-19T06:28:43.282Z,11.83
2023-02-19T06:31:12.002Z,13.17
2023-02-19T06:33:43.318Z,12.70
2023-02-19T06:36:16.687Z,12.17
2023-02-19T06:38:44.372Z,14.07
2023-02-19T06:41:12.844Z,14.70
2023-02-19T06:43:40.459Z,12.07
2023-02-19T06:46:08.308Z,9.47
2023-02-19T06:48:35.818Z,13.47
2023-02-19T06:51:03.688Z,11.60
2023-02-19T06:53:30.764Z,13.50
2023-02-19T06:56:03.316Z,10.67
2023-02-19T06:58:30.587Z,11.77
2023-02-19T07:00:57.698Z,13.57
2023-02-19T07:03:26.392Z,15.37
2023-02-19T07:05:53.608Z,7.47
2023-02-19T07:08:21.001Z,14.00
2023-02-19T07:10:58.177Z,9.83
2023-02-19T07:13:27.044Z,12.40
2023-02-19T07:16:02.097Z,12.20
2023-02-19T07:18:30.650Z,10.07
2023-02-19T07:21:09.607Z,12.40
2023-02-19T07:23:37.212Z,12.60
2023-02-19T07:26:05.335Z,13.87
2023-02-19T07:28:32.350Z,11.30
2023-02-19T07:31:04.169Z,34.60
2023-02-19T07:33:31.179Z,15.27
2023-02-19T07:35:58.293Z,12.40
2023-02-19T07:38:26.299Z,16.57
2023-02-19T07:40:58.314Z,14.17
2023-02-19T07:43:28.047Z,15.23
2023-02-19T07:45:55.465Z,12.53
2023-02-19T07:48:23.029Z,14.87
2023-02-19T07:50:59.897Z,14.07
2023-02-19T07:53:28.158Z,12.93
2023-02-19T07:56:00.698Z,14.83
2023-02-19T07:58:28.061Z,13.93
2023-02-19T08:00:55.400Z,18.83
2023-02-19T08:03:22.743Z,12.40
2023-02-19T08:05:51.522Z,11.67
2023-02-19T08:08:18.570Z,15.97
2023-02-19T08:11:04.311Z,12.03
2023-02-19T08:13:32.050Z,10.17
2023-02-19T08:16:26.892Z,16.07
2023-02-19T08:19:00.464Z,12.43
2023-02-19T08:21:27.504Z,8.77
2023-02-19T08:23:54.456Z,10.33
2023-02-19T08:26:21.555Z,13.17
2023-02-19T08:28:48.802Z,14.37
2023-02-19T08:31:16.077Z,9.57
2023-02-19T08:33:43.132Z,12.87
2023-02-19T08:36:11.357Z,13.17
2023-02-19T08:38:38.687Z,14.83
2023-02-19T08:41:08.432Z,15.90
2023-02-19T08:43:35.991Z,15.30
2023-02-19T08:46:03.799Z,12.93
2023-02-19T08:48:30.852Z,10.30
2023-02-19T08:51:00.598Z,15.93
2023-02-19T08:53:27.606Z,10.83
2023-02-19T08:55:54.785Z,11.37
2023-02-19T08:58:22.270Z,10.60
2023-02-19T09:00:49.309Z,11.00
2023-02-19T09:03:16.420Z,15.97
2023-02-19T09:05:43.483Z,12.60
2023-02-19T09:08:11.059Z,11.83
2023-02-19T09:10:37.999Z,12.60
2023-02-19T09:13:05.496Z,14.97
2023-02-19T09:15:33.548Z,15.27
2023-02-19T09:18:00.613Z,18.43
2023-02-19T09:20:27.765Z,12.50
2023-02-19T09:22:58.717Z,13.30
2023-02-19T09:25:25.888Z,17.87
2023-02-19T09:27:56.660Z,12.70
2023-02-19T09:30:24.135Z,12.33
2023-02-19T09:32:51.574Z,12.23
2023-02-19T09:35:18.559Z,14.90
2023-02-19T09:37:45.906Z,12.50
2023-02-19T09:40:13.246Z,16.70
2023-02-19T09:42:43.198Z,9.70
2023-02-19T09:45:20.123Z,13.00
2023-02-19T09:47:47.679Z,18.03
2023-02-19T09:50:21.221Z,17.43
2023-02-19T09:52:54.789Z,13.47
2023-02-19T09:55:30.755Z,11.80
2023-02-19T09:58:00.217Z,11.95
2023-02-19T10:00:31.882Z,12.33
2023-02-19T10:03:15.145Z,13.97
2023-02-19T10:05:42.420Z,16.30
2023-02-19T10:08:15.537Z,14.47
2023-02-19T10:10:44.268Z,17.37
2023-02-19T10:13:23.545Z,11.33
2023-02-19T10:15:57.785Z,12.77
2023-02-19T10:18:31.180Z,8.43
2023-02-19T10:20:58.692Z,12.93
2023-02-19T10:23:26.611Z,13.63
2023-02-19T10:25:59.286Z,13.93
2023-02-19T10:28:30.256Z,14.43
2023-02-19T10:30:59.954Z,14.87
2023-02-19T10:33:27.313Z,14.27
2023-02-19T10:36:00.007Z,15.47
2023-02-19T10:38:35.011Z,12.70
2023-02-19T10:41:06.590Z,10.20
2023-02-19T10:43:39.945Z,16.37
2023-02-19T10:46:16.339Z,14.50
2023-02-19T10:48:50.799Z,9.82
2023-02-19T10:51:23.130Z,10.47
2023-02-19T10:54:02.766Z,11.80
2023-02-19T10:56:31.500Z,12.47
2023-02-19T10:59:27.980Z,11.23
2023-02-19T11:02:15.896Z,10.17
2023-02-19T11:05:01.628Z,12.90
2023-02-19T11:07:31.191Z,13.27
2023-02-19T11:09:59.585Z,10.83
2023-02-19T11:12:29.762Z,14.13
2023-02-19T11:14:57.270Z,11.17
2023-02-19T11:17:30.410Z,13.17
2023-02-19T11:20:00.490Z,12.13
2023-02-19T11:22:40.697Z,12.47
2023-02-19T11:25:18.571Z,13.30
2023-02-19T11:28:08.555Z,14.17
2023-02-19T11:30:40.385Z,14.63
2023-02-19T11:33:16.672Z,11.17
2023-02-19T11:35:45.005Z,12.50
2023-02-19T11:38:14.125Z,16.57
2023-02-19T11:41:03.456Z,11.30
2023-02-19T11:43:53.325Z,12.67
2023-02-19T11:46:39.069Z,15.80
2023-02-19T11:49:33.305Z,18.07
2023-02-19T11:52:36.976Z,11.57
2023-02-19T11:55:31.238Z,13.30
2023-02-19T11:58:09.883Z,17.43
2023-02-19T12:01:04.936Z,12.03
2023-02-19T12:03:37.530Z,14.50
2023-02-19T12:06:23.664Z,14.47
2023-02-19T12:09:03.295Z,13.20
2023-02-19T12:11:53.677Z,11.03
2023-02-19T12:14:45.072Z,13.90
2023-02-19T12:17:14.885Z,15.13
2023-02-19T12:20:03.128Z,14.13
2023-02-19T12:22:33.960Z,11.23
2023-02-19T12:25:33.347Z,13.63
2023-02-19T12:28:09.925Z,13.43
2023-02-19T12:31:13.963Z,15.53
2023-02-19T12:34:11.798Z,12.37
2023-02-19T12:36:48.552Z,14.95
2023-02-19T12:39:34.595Z,11.83
2023-02-19T12:42:20.007Z,12.30
2023-02-19T12:44:55.429Z,12.40
2023-02-19T12:47:28.570Z,15.87
2023-02-19T12:50:08.478Z,15.33
2023-02-19T12:52:41.169Z,14.47
2023-02-19T12:55:32.131Z,13.83
2023-02-19T12:58:04.212Z,15.37
2023-02-19T13:00:53.507Z,16.17
2023-02-19T13:03:32.415Z,11.43
2023-02-19T13:06:04.245Z,20.13
2023-02-19T13:09:03.469Z,17.33
2023-02-19T13:11:37.591Z,16.67
2023-02-19T13:14:15.547Z,16.03
2023-02-19T13:16:48.924Z,11.73
2023-02-19T13:19:15.909Z,16.17
2023-02-19T13:22:05.134Z,16.53
2023-02-19T13:24:39.768Z,15.50
2023-02-19T13:27:24.636Z,16.40
2023-02-19T13:30:20.433Z,11.23
2023-02-19T13:33:35.264Z,22.97
2023-02-19T13:36:21.615Z,16.50
2023-02-19T13:38:50.342Z,17.67
2023-02-19T13:41:20.962Z,13.83
2023-02-19T13:43:56.367Z,20.17
2023-02-19T13:46:24.690Z,16.93
2023-02-19T13:49:23.237Z,14.53
2023-02-19T13:51:55.179Z,15.70
2023-02-19T13:54:28.457Z,17.80
2023-02-19T13:57:22.998Z,19.37
2023-02-19T13:59:52.113Z,23.13
2023-02-19T14:02:21.759Z,20.83
2023-02-19T14:04:52.914Z,17.60
2023-02-19T14:07:41.792Z,14.80
2023-02-19T14:10:14.619Z,20.40
2023-02-19T14:12:41.638Z,19.60
2023-02-19T14:15:44.340Z,17.57
2023-02-19T14:18:46.044Z,14.33
2023-02-19T14:21:39.776Z,20.73
2023-02-19T14:24:12.522Z,18.17
2023-02-19T14:26:41.525Z,23.93
2023-02-19T14:29:10.748Z,18.63
2023-02-19T14:31:38.757Z,15.77
2023-02-19T14:34:19.619Z,19.83
2023-02-19T14:36:51.962Z,21.50
2023-02-19T14:39:24.456Z,20.97
2023-02-19T14:41:54.647Z,19.80
2023-02-19T14:44:25.894Z,25.87
2023-02-19T14:47:13.937Z,16.40
2023-02-19T14:49:48.924Z,17.93
2023-02-19T14:52:28.465Z,18.27
2023-02-19T14:55:29.969Z,18.10
2023-02-19T14:57:59.957Z,16.80
2023-02-19T15:00:43.106Z,16.80
2023-02-19T15:03:42.182Z,16.77
2023-02-19T15:06:17.951Z,18.63
2023-02-19T15:08:49.802Z,21.58
2023-02-19T15:11:21.745Z,10.63
2023-02-19T15:13:52.380Z,17.70
2023-02-19T15:16:24.665Z,17.97
2023-02-19T15:18:54.609Z,20.40
2023-02-19T15:21:30.871Z,17.23
2023-02-19T15:24:01.480Z,20.17
2023-02-19T15:26:35.576Z,20.73
2023-02-19T15:29:09.732Z,12.90
2023-02-19T15:31:36.954Z,20.07
2023-02-19T15:34:03.984Z,18.37
2023-02-19T15:36:34.045Z,21.17
2023-02-19T15:39:02.839Z,23.93
2023-02-19T15:41:34.976Z,18.40
2023-02-19T15:44:17.063Z,15.80
2023-02-19T15:46:45.580Z,20.30
2023-02-19T15:49:45.062Z,21.60
2023-02-19T15:52:21.387Z,19.97
2023-02-19T15:55:15.468Z,20.67
2023-02-19T15:57:51.172Z,23.80
2023-02-19T16:00:26.294Z,20.80
2023-02-19T16:02:53.385Z,18.10
2023-02-19T16:05:26.807Z,21.60
2023-02-19T16:08:19.523Z,21.83
2023-02-19T16:10:58.365Z,21.87
2023-02-19T16:13:28.006Z,19.17
2023-02-19T16:16:03.617Z,21.53
2023-02-19T16:18:31.051Z,17.37
2023-02-19T16:20:59.085Z,18.30
2023-02-19T16:23:27.444Z,20.03
2023-02-19T16:26:00.522Z,20.90
2023-02-19T16:28:29.839Z,21.20
2023-02-19T16:31:03.309Z,16.93
2023-02-19T16:33:36.450Z,21.90
2023-02-19T16:36:21.466Z,26.40
2023-02-19T16:39:04.782Z,23.17
2023-02-19T16:41:31.896Z,17.37
2023-02-19T16:43:59.002Z,20.13
2023-02-19T16:46:26.172Z,21.93
2023-02-19T16:48:54.300Z,19.90
2023-02-19T16:51:26.690Z,21.57
2023-02-19T16:53:54.093Z,18.23
2023-02-19T16:56:23.199Z,21.20
2023-02-19T16:58:50.581Z,21.50
2023-02-19T17:01:18.302Z,18.60
2023-02-19T17:03:47.707Z,23.43
2023-02-19T17:06:16.110Z,22.07
2023-02-19T17:08:44.595Z,12.90
2023-02-19T17:11:16.685Z,17.57
2023-02-19T17:13:46.310Z,19.63
2023-02-19T17:16:28.853Z,17.20
2023-02-19T17:18:56.268Z,21.37
2023-02-19T17:21:29.071Z,20.80
2023-02-19T17:23:57.144Z,21.93
2023-02-19T17:26:35.980Z,20.83
2023-02-19T17:29:06.000Z,26.67
2023-02-19T17:31:34.077Z,25.70
2023-02-19T17:34:01.240Z,21.37
2023-02-19T17:36:30.948Z,26.67
2023-02-19T17:38:59.679Z,22.00
2023-02-19T17:41:29.275Z,24.73
2023-02-19T17:43:56.479Z,15.03
2023-02-19T17:46:26.018Z,29.60
2023-02-19T17:48:54.049Z,21.23
2023-02-19T17:51:21.610Z,24.93
2023-02-19T17:53:48.550Z,30.43
2023-02-19T17:56:19.023Z,25.80
2023-02-19T17:58:46.196Z,25.90
2023-02-19T18:01:14.023Z,23.90
2023-02-19T18:03:41.438Z,23.27
2023-02-19T18:06:08.940Z,24.90
2023-02-19T18:08:36.088Z,26.07
2023-02-19T18:11:03.286Z,28.83
2023-02-19T18:13:30.427Z,27.47
2023-02-19T18:15:57.500Z,31.83
2023-02-19T18:18:24.513Z,24.43
2023-02-19T18:20:51.504Z,22.83
2023-02-19T18:23:20.568Z,23.63
2023-02-19T18:25:47.875Z,29.77
2023-02-19T18:28:15.271Z,31.20
2023-02-19T18:30:42.642Z,28.20
2023-02-19T18:33:13.517Z,21.20
2023-02-19T18:35:40.641Z,24.93
2023-02-19T18:38:07.754Z,28.47
2023-02-19T18:40:34.746Z,30.77
2023-02-19T18:43:01.847Z,28.97
2023-02-19T18:45:29.827Z,25.97
2023-02-19T18:47:56.857Z,31.73
2023-02-19T18:50:24.149Z,26.87
2023-02-19T18:52:51.777Z,27.37
2023-02-19T18:55:18.913Z,28.40
2023-02-19T18:57:47.076Z,26.77
2023-02-19T19:00:20.965Z,30.30
2023-02-19T19:02:50.173Z,27.87
2023-02-19T19:05:22.987Z,27.10
2023-02-19T19:07:55.465Z,27.63
2023-02-19T19:10:23.436Z,24.27
2023-02-19T19:12:50.588Z,25.73
2023-02-19T19:15:18.920Z,26.43
2023-02-19T19:17:47.914Z,31.20
2023-02-19T19:20:18.821Z,27.83
2023-02-19T19:22:46.046Z,27.10
2023-02-19T19:25:13.127Z,30.80
2023-02-19T19:27:40.127Z,31.47
2023-02-19T19:30:08.159Z,25.23
2023-02-19T19:32:35.346Z,27.93
2023-02-19T19:35:02.367Z,27.83
2023-02-19T19:37:30.602Z,30.63
2023-02-19T19:39:57.581Z,31.67
2023-02-19T19:42:24.898Z,34.23
2023-02-19T19:44:52.134Z,26.77
2023-02-19T19:47:19.328Z,30.47
2023-02-19T19:49:47.450Z,29.83
2023-02-19T19:52:14.840Z,25.87
2023-02-19T19:54:43.341Z,31.13
2023-02-19T19:57:10.862Z,30.47
2023-02-19T19:59:39.471Z,30.07
2023-02-19T20:02:07.867Z,27.37
2023-02-19T20:04:34.990Z,28.93
2023-02-19T20:07:02.428Z,30.60
2023-02-19T20:09:29.538Z,26.07
2023-02-19T20:11:56.902Z,27.80
2023-02-19T20:14:25.350Z,27.30
2023-02-19T20:16:53.375Z,25.33
2023-02-19T20:19:20.778Z,30.53
2023-02-19T20:21:53.146Z,27.00
2023-02-19T20:24:26.196Z,28.93
2023-02-19T20:26:58.530Z,30.63
2023-02-19T20:29:34.455Z,26.90
2023-02-19T20:32:03.834Z,29.27
2023-02-19T20:34:31.526Z,27.13
2023-02-19T20:36:58.980Z,29.77
2023-02-19T20:39:29.059Z,28.83
2023-02-19T20:41:57.712Z,26.80
2023-02-19T20:44:25.797Z,28.10
2023-02-19T20:46:53.535Z,31.40
2023-02-19T20:49:23.789Z,28.77
2023-02-19T20:51:54.983Z,26.77
2023-02-19T20:54:25.072Z,29.67
2023-02-19T20:56:54.925Z,27.03
2023-02-19T20:59:24.911Z,26.43
2023-02-19T21:01:51.982Z,33.23
2023-02-19T21:04:19.140Z,32.27
2023-02-19T21:06:46.362Z,27.53
2023-02-19T21:09:13.391Z,27.83
2023-02-19T21:11:40.431Z,31.80
2023-02-19T21:14:07.401Z,28.27
2023-02-19T21:16:34.727Z,29.07
2023-02-19T21:19:01.740Z,27.93
2023-02-19T21:21:31.287Z,28.57
2023-02-19T21:23:59.573Z,25.87
2023-02-19T21:26:36.840Z,29.50
2023-02-19T21:29:08.615Z,37.37
2023-02-19T21:31:49.971Z,28.73
2023-02-19T21:34:19.843Z,29.70
2023-02-19T21:36:47.421Z,30.63
2023-02-19T21:39:18.134Z,30.87
2023-02-19T21:41:45.345Z,32.10
2023-02-19T21:44:12.690Z,34.93
2023-02-19T21:46:40.813Z,34.50
2023-02-19T21:49:08.004Z,31.30
2023-02-19T21:51:37.272Z,31.23
2023-02-19T21:54:05.918Z,26.73
2023-02-19T21:56:36.350Z,29.63
2023-02-19T21:59:04.112Z,31.97
2023-02-19T22:01:34.178Z,34.97
2023-02-19T22:04:01.432Z,29.97
2023-02-19T22:06:30.855Z,33.03
2023-02-19T22:08:58.674Z,28.93
2023-02-19T22:11:25.849Z,30.50
2023-02-19T22:13:53.222Z,31.87
2023-02-19T22:16:20.513Z,29.53
2023-02-19T22:18:52.239Z,31.97
2023-02-19T22:21:20.461Z,32.57
2023-02-19T22:23:48.564Z,33.37
2023-02-19T22:26:23.727Z,30.40
2023-02-19T22:28:51.844Z,36.87
2023-02-19T22:31:21.198Z,33.27
2023-02-19T22:33:48.559Z,35.57
2023-02-19T22:36:20.691Z,37.13
2023-02-19T22:38:48.385Z,39.23
2023-02-19T22:41:17.181Z,37.13
2023-02-19T22:43:44.894Z,36.78
2023-02-19T22:46:18.297Z,33.83
2023-02-19T22:48:45.668Z,38.47
2023-02-19T22:51:15.130Z,36.60
2023-02-19T22:53:50.513Z,32.40
2023-02-19T22:56:18.900Z,36.40
2023-02-19T22:58:46.054Z,33.27
2023-02-19T23:01:14.585Z,39.13
2023-02-19T23:03:53.110Z,34.47
2023-02-19T23:06:28.921Z,35.03
2023-02-19T23:08:58.298Z,37.67
2023-02-19T23:11:33.198Z,35.90
2023-02-19T23:14:00.272Z,33.87
2023-02-19T23:16:27.293Z,35.47
2023-02-19T23:18:54.685Z,35.33
2023-02-19T23:21:22.783Z,40.00
2023-02-19T23:23:49.934Z,36.40
2023-02-19T23:26:17.272Z,38.57
2023-02-19T23:28:45.168Z,40.13
2023-02-19T23:31:13.206Z,34.13
2023-02-19T23:33:40.641Z,34.33
2023-02-19T23:36:08.733Z,36.77
2023-02-19T23:38:36.162Z,34.37
2023-02-19T23:41:04.171Z,35.10
2023-02-19T23:43:31.126Z,39.27
2023-02-19T23:45:58.212Z,37.97
2023-02-19T23:48:25.104Z,36.87
2023-02-19T23:50:52.001Z,38.97
2023-02-19T23:53:19.060Z,35.33
2023-02-19T23:55:46.268Z,38.50
2023-02-19T23:58:13.225Z,36.67
